Main page
METAR-TAF:

METAR-TAF

Airports :

Çanakkale Airport

Çanakkale, Turkey

latitude: 40-08N, longitude: 026-24E, elevation: 3 m

Current weather observation

The report was made 11 hours and 9 minutes ago, at 14:50 UTC
Wind 19 kt from the Northeast
Temperature 8°C
Humidity 81%
Pressure 1023 hPa
Visibility 10 km or more
Broken clouds at a height of 3000 ft
Broken clouds at a height of 10000 ft

METAR: LTBH 061450Z 04019KT 9999 BKN030 BKN100 08/05 Q1023 RESHRA

Time: 04:59 (01:59 UTC)

Forecast

The report was made 3 hours and 19 minutes ago, at 22:40 UTC
Forecast valid from 07 at 00 UTC to 07 at 09 UTC
Wind 20 kt from the Northeast with gusts up to 35 kt
Visibility 10 km or more
Few clouds at a height of 1500 ft
Broken clouds at a height of 3000 ft
Broken clouds at a height of 10000 ft
Temporary
from 07 at 03 UTC to 07 at 06 UTC
light rain showers

TAF: LTBH 062240Z 0700/0709 05020G35KT 9999 FEW015 BKN030 BKN100 TEMPO 0703/0706 -SHRA

Weather observations and forecasts of more than 4000 airports (METAR and TAF reports).

The available stations are represented by yellow and red dots on the map.

Hover mouse over dot to see the name of the station.

Then click to see weather observations and forecasts.

To change the map : click on the green buttons with a black cross to zoom in, on the green button with a dash to zoom out, or on the green arrows for adjacent maps.


METAR-TAF: